BERICHT 22/12/2019: De oude website is tijdelijk weer online! In 2020 zal er een volledig nieuwe site uitgerold worden, die nu volop in ontwikkeling is! Ondertussen blijven onderstaande metingen wel actueel!

Weerstation Zoersel Live Webcam Weerstation Zoersel Live Webcam


sateliet wolkenradar  


Doneren

CBI


onweer radar meer informatie blitzortung!


regen radar  rain snow radar


Enkele sfeerfotootjes...  

Het weer levert geen direct gevaar op.    Er zijn geen waarschuwingen afgegeven.

metar rapporten vliegvelden

   
EBAW - Antwerp
gewijzigd: 26-09-2022 21:50
Light Showers, regen, grotendeels bewolkt  
Light Showers, regen, grotendeels bewolkt  
   wind: westen 13 km/h
wind: westen 13 km/h
temperatuur: 11°C
dauwpunt: 10°C
vochtigheid: 94%
barometer: 998 hPa
bewolking: grotendeels bewolkt
zicht: meer dan 10 km
bewolking: licht bewolkt 700 ft,
grotendeels bewolkt 1000 ft,
grotendeels bewolkt 1200 ft
EBAW 261950Z AUTO 27007KT 9999 -SHRA FEW007/// BKN010/// BKN012/// 11/10 Q0998
EBLG - Li├Ęge
gewijzigd: 26-09-2022 21:50
grotendeels bewolkt  
grotendeels bewolkt  
   wind: wzw 20,4 km/h
wind: wzw 20,4 km/h
temperatuur: 10°C
voelt als: 7°C
dauwpunt: 9°C
vochtigheid: 94%
barometer: 998 hPa
bewolking: grotendeels bewolkt
zicht: meer dan 10 km
bewolking: gedeeltelijk bewolkt 1000 ft,
grotendeels bewolkt 1700 ft
EBLG 261950Z 25011KT 9999 SCT010 BKN017 10/09 Q0998 TEMPO BKN010 TEMPO FM2100 3500 SHRA BKN007 BKN015CB
EBCV - Mons/Bergen
gewijzigd: 26-09-2022 22:13
lichte (mot)regen, bewolking  
lichte (mot)regen, bewolking  
   wind: westen 13 km/h
wind: westen 13 km/h
temperatuur: 11°C
dauwpunt: 10°C
vochtigheid: 94%
barometer: 1000 hPa
bewolking: bewolking
zicht: meer dan 10 km
bewolking: licht bewolkt 2400 ft,
bewolking 5200 ft
EBCV 262013Z AUTO 27007KT 9999 -DZ FEW024/// OVC052/// 11/10 Q1000 BLU
EHBK - Maastricht
gewijzigd: 26-09-2022 21:55
grotendeels bewolkt  
grotendeels bewolkt  
   wind: wzw 13 km/h
wind: wzw 13 km/h
temperatuur: 11°C
dauwpunt: 10°C
vochtigheid: 94%
barometer: 997 hPa
bewolking: grotendeels bewolkt
zicht: meer dan 10 km
bewolking: gedeeltelijk bewolkt 600 ft,
grotendeels bewolkt 800 ft,
grotendeels bewolkt 900 ft
EHBK 261955Z AUTO 25007KT 210V300 9999 SCT006 BKN008 BKN009 11/10 Q0997 BECMG BKN012
ELLX - Luxemburg
gewijzigd: 26-09-2022 21:50
grotendeels bewolkt  
grotendeels bewolkt  
   wind: zw 24,1 km/h
wind: zw 24,1 km/h
temperatuur: 9°C
voelt als: 6°C
dauwpunt: 9°C
vochtigheid: 100%
barometer: 999 hPa
bewolking: grotendeels bewolkt
zicht: meer dan 10 km
bewolking: gedeeltelijk bewolkt 400 ft,
grotendeels bewolkt 600 ft
ELLX 261950Z 22013KT 9999 SCT004 BKN006 09/09 Q0999 NOSIG
EBOS - Oostende
gewijzigd: 26-09-2022 21:50
gedeeltelijk bewolkt  
gedeeltelijk bewolkt  
   wind: nnw 31,5 km/h
wind: nnw 31,5 km/h
temperatuur: 12°C
dauwpunt: 6°C
vochtigheid: 67%
barometer: 1000 hPa
bewolking: gedeeltelijk bewolkt
zicht: meer dan 10 km
bewolking: licht bewolkt 2200 ft,
gedeeltelijk bewolkt 2800 ft
EBOS 261950Z 33017KT 9999 FEW022 SCT028 12/06 Q1000 NOSIG

script ontwikkeld door  Saratoga-weather.org aangepast voor de template door  Weerstation Leuven